sensor_id;sensor_type;location;lat;lon;timestamp;P1;durP1;ratioP1;P2;durP2;ratioP2
68050;SDS011;54839;51.364;7.246;2023-10-09T00:01:39;20.43;;;13.73;;
68050;SDS011;54839;51.364;7.246;2023-10-09T00:04:09;20.63;;;12.30;;
68050;SDS011;54839;51.364;7.246;2023-10-09T00:06:36;17.13;;;11.27;;
68050;SDS011;54839;51.364;7.246;2023-10-09T00:09:05;17.10;;;10.90;;
68050;SDS011;54839;51.364;7.246;2023-10-09T00:11:51;18.20;;;10.17;;
68050;SDS011;54839;51.364;7.246;2023-10-09T00:14:25;16.70;;;11.53;;
68050;SDS011;54839;51.364;7.246;2023-10-09T00:16:51;16.63;;;11.60;;
68050;SDS011;54839;51.364;7.246;2023-10-09T00:19:35;13.80;;;10.37;;
68050;SDS011;54839;51.364;7.246;2023-10-09T00:22:02;17.87;;;11.63;;
68050;SDS011;54839;51.364;7.246;2023-10-09T00:24:42;17.23;;;11.73;;
68050;SDS011;54839;51.364;7.246;2023-10-09T00:27:11;13.80;;;9.83;;
68050;SDS011;54839;51.364;7.246;2023-10-09T00:29:37;19.33;;;11.27;;
68050;SDS011;54839;51.364;7.246;2023-10-09T00:32:09;16.57;;;12.10;;
68050;SDS011;54839;51.364;7.246;2023-10-09T00:34:47;16.37;;;11.33;;
68050;SDS011;54839;51.364;7.246;2023-10-09T00:37:15;17.77;;;12.13;;
68050;SDS011;54839;51.364;7.246;2023-10-09T00:39:44;16.70;;;11.83;;
68050;SDS011;54839;51.364;7.246;2023-10-09T00:42:13;18.90;;;11.60;;
68050;SDS011;54839;51.364;7.246;2023-10-09T00:44:50;18.07;;;12.00;;
68050;SDS011;54839;51.364;7.246;2023-10-09T00:47:16;18.67;;;12.70;;
68050;SDS011;54839;51.364;7.246;2023-10-09T00:49:49;17.93;;;11.27;;
68050;SDS011;54839;51.364;7.246;2023-10-09T00:52:23;18.97;;;12.17;;
68050;SDS011;54839;51.364;7.246;2023-10-09T00:54:57;17.30;;;12.07;;
68050;SDS011;54839;51.364;7.246;2023-10-09T00:57:27;19.60;;;11.90;;
68050;SDS011;54839;51.364;7.246;2023-10-09T00:59:54;16.70;;;10.57;;
68050;SDS011;54839;51.364;7.246;2023-10-09T01:02:25;15.80;;;11.53;;
68050;SDS011;54839;51.364;7.246;2023-10-09T01:05:01;17.47;;;11.63;;
68050;SDS011;54839;51.364;7.246;2023-10-09T01:07:36;15.37;;;10.20;;
68050;SDS011;54839;51.364;7.246;2023-10-09T01:10:05;20.27;;;12.40;;
68050;SDS011;54839;51.364;7.246;2023-10-09T01:12:34;21.93;;;12.07;;
68050;SDS011;54839;51.364;7.246;2023-10-09T01:15:07;18.13;;;11.47;;
68050;SDS011;54839;51.364;7.246;2023-10-09T01:17:33;14.80;;;10.80;;
68050;SDS011;54839;51.364;7.246;2023-10-09T01:20:02;14.50;;;10.60;;
68050;SDS011;54839;51.364;7.246;2023-10-09T01:22:39;20.30;;;11.57;;
68050;SDS011;54839;51.364;7.246;2023-10-09T01:25:06;15.67;;;11.27;;
68050;SDS011;54839;51.364;7.246;2023-10-09T01:27:32;18.80;;;11.70;;
68050;SDS011;54839;51.364;7.246;2023-10-09T01:29:59;14.73;;;11.53;;
68050;SDS011;54839;51.364;7.246;2023-10-09T01:32:25;17.03;;;10.63;;
68050;SDS011;54839;51.364;7.246;2023-10-09T01:34:52;17.97;;;11.47;;
68050;SDS011;54839;51.364;7.246;2023-10-09T01:37:19;17.30;;;11.67;;
68050;SDS011;54839;51.364;7.246;2023-10-09T01:39:54;17.97;;;10.53;;
68050;SDS011;54839;51.364;7.246;2023-10-09T01:42:24;15.10;;;11.07;;
68050;SDS011;54839;51.364;7.246;2023-10-09T01:44:59;21.60;;;10.70;;
68050;SDS011;54839;51.364;7.246;2023-10-09T01:47:41;21.03;;;11.60;;
68050;SDS011;54839;51.364;7.246;2023-10-09T01:50:16;16.67;;;10.90;;
68050;SDS011;54839;51.364;7.246;2023-10-09T01:52:47;19.00;;;11.37;;
68050;SDS011;54839;51.364;7.246;2023-10-09T01:55:13;16.57;;;10.57;;
68050;SDS011;54839;51.364;7.246;2023-10-09T01:57:54;16.50;;;11.30;;
68050;SDS011;54839;51.364;7.246;2023-10-09T02:00:23;19.67;;;12.47;;
68050;SDS011;54839;51.364;7.246;2023-10-09T02:02:53;16.70;;;11.70;;
68050;SDS011;54839;51.364;7.246;2023-10-09T02:05:18;13.27;;;10.83;;
68050;SDS011;54839;51.364;7.246;2023-10-09T02:07:44;14.10;;;11.13;;
68050;SDS011;54839;51.364;7.246;2023-10-09T02:10:16;14.97;;;10.50;;
68050;SDS011;54839;51.364;7.246;2023-10-09T02:13:02;15.70;;;11.83;;
68050;SDS011;54839;51.364;7.246;2023-10-09T02:15:33;14.23;;;10.40;;
68050;SDS011;54839;51.364;7.246;2023-10-09T02:18:25;16.07;;;11.57;;
68050;SDS011;54839;51.364;7.246;2023-10-09T02:23:27;15.23;;;11.33;;
68050;SDS011;54839;51.364;7.246;2023-10-09T02:26:15;14.97;;;10.87;;
68050;SDS011;54839;51.364;7.246;2023-10-09T02:28:51;16.40;;;12.73;;
68050;SDS011;54839;51.364;7.246;2023-10-09T02:31:24;17.83;;;12.20;;
68050;SDS011;54839;51.364;7.246;2023-10-09T02:33:52;16.03;;;12.10;;
68050;SDS011;54839;51.364;7.246;2023-10-09T02:36:21;15.73;;;11.83;;
68050;SDS011;54839;51.364;7.246;2023-10-09T02:38:47;14.43;;;11.47;;
68050;SDS011;54839;51.364;7.246;2023-10-09T02:41:14;19.50;;;14.03;;
68050;SDS011;54839;51.364;7.246;2023-10-09T02:43:40;16.60;;;10.60;;
68050;SDS011;54839;51.364;7.246;2023-10-09T02:46:13;15.77;;;11.03;;
68050;SDS011;54839;51.364;7.246;2023-10-09T02:48:43;16.57;;;12.03;;
68050;SDS011;54839;51.364;7.246;2023-10-09T02:51:16;13.53;;;12.10;;
68050;SDS011;54839;51.364;7.246;2023-10-09T02:54:03;14.20;;;9.77;;
68050;SDS011;54839;51.364;7.246;2023-10-09T02:56:48;18.90;;;11.97;;
68050;SDS011;54839;51.364;7.246;2023-10-09T02:59:34;14.20;;;11.67;;
68050;SDS011;54839;51.364;7.246;2023-10-09T03:02:02;14.03;;;11.30;;
68050;SDS011;54839;51.364;7.246;2023-10-09T03:04:27;12.97;;;9.57;;
68050;SDS011;54839;51.364;7.246;2023-10-09T03:06:54;15.83;;;11.17;;
68050;SDS011;54839;51.364;7.246;2023-10-09T03:09:22;12.30;;;10.00;;
68050;SDS011;54839;51.364;7.246;2023-10-09T03:11:55;16.27;;;11.57;;
68050;SDS011;54839;51.364;7.246;2023-10-09T03:14:27;20.37;;;12.80;;
68050;SDS011;54839;51.364;7.246;2023-10-09T03:16:54;15.40;;;11.47;;
68050;SDS011;54839;51.364;7.246;2023-10-09T03:19:26;15.43;;;11.17;;
68050;SDS011;54839;51.364;7.246;2023-10-09T03:22:02;13.90;;;11.13;;
68050;SDS011;54839;51.364;7.246;2023-10-09T03:24:28;16.23;;;10.83;;
68050;SDS011;54839;51.364;7.246;2023-10-09T03:26:55;13.43;;;11.60;;
68050;SDS011;54839;51.364;7.246;2023-10-09T03:29:22;13.30;;;10.63;;
68050;SDS011;54839;51.364;7.246;2023-10-09T03:31:48;17.57;;;10.33;;
68050;SDS011;54839;51.364;7.246;2023-10-09T03:34:16;15.57;;;10.57;;
68050;SDS011;54839;51.364;7.246;2023-10-09T03:36:43;15.83;;;10.90;;
68050;SDS011;54839;51.364;7.246;2023-10-09T03:39:13;15.17;;;10.30;;
68050;SDS011;54839;51.364;7.246;2023-10-09T03:41:57;16.43;;;9.67;;
68050;SDS011;54839;51.364;7.246;2023-10-09T03:44:29;13.90;;;9.83;;
68050;SDS011;54839;51.364;7.246;2023-10-09T03:46:55;13.67;;;9.90;;
68050;SDS011;54839;51.364;7.246;2023-10-09T03:49:21;13.60;;;10.93;;
68050;SDS011;54839;51.364;7.246;2023-10-09T03:51:50;17.13;;;9.73;;
68050;SDS011;54839;51.364;7.246;2023-10-09T03:54:17;12.87;;;9.77;;
68050;SDS011;54839;51.364;7.246;2023-10-09T03:56:47;15.37;;;9.63;;
68050;SDS011;54839;51.364;7.246;2023-10-09T03:59:20;12.47;;;9.90;;
68050;SDS011;54839;51.364;7.246;2023-10-09T04:01:48;15.37;;;9.53;;
68050;SDS011;54839;51.364;7.246;2023-10-09T04:04:18;11.57;;;9.53;;
68050;SDS011;54839;51.364;7.246;2023-10-09T04:06:47;13.70;;;8.40;;
68050;SDS011;54839;51.364;7.246;2023-10-09T04:09:13;11.67;;;8.50;;
68050;SDS011;54839;51.364;7.246;2023-10-09T04:11:54;12.33;;;9.20;;
68050;SDS011;54839;51.364;7.246;2023-10-09T04:14:35;11.67;;;8.90;;
68050;SDS011;54839;51.364;7.246;2023-10-09T04:17:26;13.50;;;9.00;;
68050;SDS011;54839;51.364;7.246;2023-10-09T04:19:54;15.47;;;9.50;;
68050;SDS011;54839;51.364;7.246;2023-10-09T04:22:39;10.63;;;8.77;;
68050;SDS011;54839;51.364;7.246;2023-10-09T04:25:15;11.73;;;9.00;;
68050;SDS011;54839;51.364;7.246;2023-10-09T04:27:50;14.30;;;9.20;;
68050;SDS011;54839;51.364;7.246;2023-10-09T04:30:35;10.10;;;7.73;;
68050;SDS011;54839;51.364;7.246;2023-10-09T04:33:11;12.50;;;9.10;;
68050;SDS011;54839;51.364;7.246;2023-10-09T04:36:15;13.43;;;8.90;;
68050;SDS011;54839;51.364;7.246;2023-10-09T04:38:52;13.87;;;9.00;;
68050;SDS011;54839;51.364;7.246;2023-10-09T04:41:40;14.17;;;9.37;;
68050;SDS011;54839;51.364;7.246;2023-10-09T04:44:06;15.13;;;9.37;;
68050;SDS011;54839;51.364;7.246;2023-10-09T04:46:48;13.40;;;9.50;;
68050;SDS011;54839;51.364;7.246;2023-10-09T04:49:33;13.57;;;10.20;;
68050;SDS011;54839;51.364;7.246;2023-10-09T04:52:15;14.60;;;8.37;;
68050;SDS011;54839;51.364;7.246;2023-10-09T04:55:04;12.20;;;8.13;;
68050;SDS011;54839;51.364;7.246;2023-10-09T04:57:33;11.70;;;9.63;;
68050;SDS011;54839;51.364;7.246;2023-10-09T05:00:04;16.77;;;10.50;;
68050;SDS011;54839;51.364;7.246;2023-10-09T05:02:49;11.13;;;9.00;;
68050;SDS011;54839;51.364;7.246;2023-10-09T05:05:32;26.00;;;9.97;;
68050;SDS011;54839;51.364;7.246;2023-10-09T05:08:09;14.00;;;9.80;;
68050;SDS011;54839;51.364;7.246;2023-10-09T05:10:48;14.20;;;9.90;;
68050;SDS011;54839;51.364;7.246;2023-10-09T05:13:24;13.07;;;10.17;;
68050;SDS011;54839;51.364;7.246;2023-10-09T05:18:53;15.27;;;9.63;;
68050;SDS011;54839;51.364;7.246;2023-10-09T05:21:31;13.10;;;9.50;;
68050;SDS011;54839;51.364;7.246;2023-10-09T05:23:58;14.03;;;10.30;;
68050;SDS011;54839;51.364;7.246;2023-10-09T05:26:36;15.87;;;11.03;;
68050;SDS011;54839;51.364;7.246;2023-10-09T05:29:20;16.87;;;11.00;;
68050;SDS011;54839;51.364;7.246;2023-10-09T05:31:59;13.07;;;9.37;;
68050;SDS011;54839;51.364;7.246;2023-10-09T05:34:31;13.60;;;9.90;;
68050;SDS011;54839;51.364;7.246;2023-10-09T05:37:04;14.17;;;10.83;;
68050;SDS011;54839;51.364;7.246;2023-10-09T05:39:57;17.97;;;11.33;;
68050;SDS011;54839;51.364;7.246;2023-10-09T05:42:26;11.83;;;10.00;;
68050;SDS011;54839;51.364;7.246;2023-10-09T05:45:16;15.47;;;9.80;;
68050;SDS011;54839;51.364;7.246;2023-10-09T05:47:48;12.93;;;10.20;;
68050;SDS011;54839;51.364;7.246;2023-10-09T05:50:50;17.90;;;9.97;;
68050;SDS011;54839;51.364;7.246;2023-10-09T05:53:34;11.13;;;10.03;;
68050;SDS011;54839;51.364;7.246;2023-10-09T05:56:08;15.80;;;11.13;;
68050;SDS011;54839;51.364;7.246;2023-10-09T05:58:53;15.60;;;12.00;;
68050;SDS011;54839;51.364;7.246;2023-10-09T06:01:37;12.70;;;10.70;;
68050;SDS011;54839;51.364;7.246;2023-10-09T06:04:21;19.23;;;11.87;;
68050;SDS011;54839;51.364;7.246;2023-10-09T06:06:58;14.20;;;10.90;;
68050;SDS011;54839;51.364;7.246;2023-10-09T06:09:39;13.63;;;9.63;;
68050;SDS011;54839;51.364;7.246;2023-10-09T06:12:21;18.47;;;11.03;;
68050;SDS011;54839;51.364;7.246;2023-10-09T06:15:14;16.97;;;10.80;;
68050;SDS011;54839;51.364;7.246;2023-10-09T06:18:06;22.60;;;11.60;;
68050;SDS011;54839;51.364;7.246;2023-10-09T06:20:50;14.73;;;11.10;;
68050;SDS011;54839;51.364;7.246;2023-10-09T06:23:48;12.73;;;9.37;;
68050;SDS011;54839;51.364;7.246;2023-10-09T06:26:33;18.43;;;12.73;;
68050;SDS011;54839;51.364;7.246;2023-10-09T06:28:58;12.03;;;10.83;;
68050;SDS011;54839;51.364;7.246;2023-10-09T06:31:39;12.30;;;10.10;;
68050;SDS011;54839;51.364;7.246;2023-10-09T06:34:40;11.10;;;9.87;;
68050;SDS011;54839;51.364;7.246;2023-10-09T06:37:09;16.63;;;12.13;;
68050;SDS011;54839;51.364;7.246;2023-10-09T06:39:59;15.37;;;10.53;;
68050;SDS011;54839;51.364;7.246;2023-10-09T06:43:00;13.67;;;9.70;;
68050;SDS011;54839;51.364;7.246;2023-10-09T06:45:34;13.47;;;10.40;;
68050;SDS011;54839;51.364;7.246;2023-10-09T06:48:08;13.93;;;9.13;;
68050;SDS011;54839;51.364;7.246;2023-10-09T06:50:53;16.47;;;10.30;;
68050;SDS011;54839;51.364;7.246;2023-10-09T06:53:23;16.70;;;11.33;;
68050;SDS011;54839;51.364;7.246;2023-10-09T06:56:14;16.07;;;9.63;;
68050;SDS011;54839;51.364;7.246;2023-10-09T07:01:23;16.47;;;11.30;;
68050;SDS011;54839;51.364;7.246;2023-10-09T07:04:04;17.43;;;10.87;;
68050;SDS011;54839;51.364;7.246;2023-10-09T07:06:47;18.37;;;11.50;;
68050;SDS011;54839;51.364;7.246;2023-10-09T07:09:21;15.53;;;12.27;;
68050;SDS011;54839;51.364;7.246;2023-10-09T07:11:48;14.37;;;11.13;;
68050;SDS011;54839;51.364;7.246;2023-10-09T07:14:23;20.10;;;11.63;;
68050;SDS011;54839;51.364;7.246;2023-10-09T07:16:55;14.40;;;10.40;;
68050;SDS011;54839;51.364;7.246;2023-10-09T07:19:25;15.30;;;11.67;;
68050;SDS011;54839;51.364;7.246;2023-10-09T07:21:57;16.40;;;11.20;;
68050;SDS011;54839;51.364;7.246;2023-10-09T07:24:28;18.87;;;11.70;;
68050;SDS011;54839;51.364;7.246;2023-10-09T07:27:09;14.20;;;10.73;;
68050;SDS011;54839;51.364;7.246;2023-10-09T07:29:38;20.47;;;12.07;;
68050;SDS011;54839;51.364;7.246;2023-10-09T07:32:18;18.07;;;11.80;;
68050;SDS011;54839;51.364;7.246;2023-10-09T07:34:50;13.00;;;11.03;;
68050;SDS011;54839;51.364;7.246;2023-10-09T07:37:22;17.33;;;11.80;;
68050;SDS011;54839;51.364;7.246;2023-10-09T07:39:51;16.40;;;12.87;;
68050;SDS011;54839;51.364;7.246;2023-10-09T07:42:23;20.00;;;11.63;;
68050;SDS011;54839;51.364;7.246;2023-10-09T07:45:02;17.10;;;11.33;;
68050;SDS011;54839;51.364;7.246;2023-10-09T07:47:50;16.27;;;11.10;;
68050;SDS011;54839;51.364;7.246;2023-10-09T07:50:25;12.03;;;10.63;;
68050;SDS011;54839;51.364;7.246;2023-10-09T07:53:03;16.00;;;11.60;;
68050;SDS011;54839;51.364;7.246;2023-10-09T07:55:56;13.17;;;11.47;;
68050;SDS011;54839;51.364;7.246;2023-10-09T07:58:31;18.07;;;11.33;;
68050;SDS011;54839;51.364;7.246;2023-10-09T08:00:58;15.17;;;11.03;;
68050;SDS011;54839;51.364;7.246;2023-10-09T08:03:36;16.53;;;11.13;;
68050;SDS011;54839;51.364;7.246;2023-10-09T08:06:02;14.90;;;11.20;;
68050;SDS011;54839;51.364;7.246;2023-10-09T08:08:47;16.77;;;11.40;;
68050;SDS011;54839;51.364;7.246;2023-10-09T08:11:29;13.83;;;10.20;;
68050;SDS011;54839;51.364;7.246;2023-10-09T08:14:11;14.33;;;10.87;;
68050;SDS011;54839;51.364;7.246;2023-10-09T08:16:56;14.57;;;11.10;;
68050;SDS011;54839;51.364;7.246;2023-10-09T08:19:40;16.50;;;11.73;;
68050;SDS011;54839;51.364;7.246;2023-10-09T08:22:23;16.10;;;10.70;;
68050;SDS011;54839;51.364;7.246;2023-10-09T08:24:50;17.30;;;11.50;;
68050;SDS011;54839;51.364;7.246;2023-10-09T08:27:22;16.90;;;11.43;;
68050;SDS011;54839;51.364;7.246;2023-10-09T08:29:58;13.10;;;9.60;;
68050;SDS011;54839;51.364;7.246;2023-10-09T08:32:42;18.67;;;11.70;;
68050;SDS011;54839;51.364;7.246;2023-10-09T08:35:25;15.03;;;10.10;;
68050;SDS011;54839;51.364;7.246;2023-10-09T08:37:57;23.53;;;10.70;;
68050;SDS011;54839;51.364;7.246;2023-10-09T08:40:36;16.63;;;12.70;;
68050;SDS011;54839;51.364;7.246;2023-10-09T08:43:08;13.80;;;11.30;;
68050;SDS011;54839;51.364;7.246;2023-10-09T08:45:39;13.37;;;11.67;;
68050;SDS011;54839;51.364;7.246;2023-10-09T08:48:10;14.80;;;10.77;;
68050;SDS011;54839;51.364;7.246;2023-10-09T08:50:43;17.10;;;11.70;;
68050;SDS011;54839;51.364;7.246;2023-10-09T08:53:14;15.83;;;12.37;;
68050;SDS011;54839;51.364;7.246;2023-10-09T08:55:41;21.47;;;13.93;;
68050;SDS011;54839;51.364;7.246;2023-10-09T08:58:08;17.93;;;13.77;;
68050;SDS011;54839;51.364;7.246;2023-10-09T09:00:56;13.53;;;11.63;;
68050;SDS011;54839;51.364;7.246;2023-10-09T09:03:23;20.50;;;12.90;;
68050;SDS011;54839;51.364;7.246;2023-10-09T09:05:58;19.30;;;12.40;;
68050;SDS011;54839;51.364;7.246;2023-10-09T09:08:29;15.10;;;12.13;;
68050;SDS011;54839;51.364;7.246;2023-10-09T09:13:30;16.90;;;12.77;;
68050;SDS011;54839;51.364;7.246;2023-10-09T09:15:57;16.20;;;11.70;;
68050;SDS011;54839;51.364;7.246;2023-10-09T09:18:23;18.87;;;13.13;;
68050;SDS011;54839;51.364;7.246;2023-10-09T09:20:56;14.47;;;12.13;;
68050;SDS011;54839;51.364;7.246;2023-10-09T09:23:23;16.10;;;11.43;;
68050;SDS011;54839;51.364;7.246;2023-10-09T09:25:49;15.77;;;12.30;;
68050;SDS011;54839;51.364;7.246;2023-10-09T09:28:23;15.90;;;12.03;;
68050;SDS011;54839;51.364;7.246;2023-10-09T09:30:51;15.17;;;10.93;;
68050;SDS011;54839;51.364;7.246;2023-10-09T09:35:55;15.30;;;11.80;;
68050;SDS011;54839;51.364;7.246;2023-10-09T09:38:28;13.27;;;10.80;;
68050;SDS011;54839;51.364;7.246;2023-10-09T09:41:12;15.20;;;10.77;;
68050;SDS011;54839;51.364;7.246;2023-10-09T09:43:55;16.90;;;11.57;;
68050;SDS011;54839;51.364;7.246;2023-10-09T09:46:22;19.23;;;13.07;;
68050;SDS011;54839;51.364;7.246;2023-10-09T09:48:57;17.17;;;9.77;;
68050;SDS011;54839;51.364;7.246;2023-10-09T09:51:30;20.00;;;10.63;;
68050;SDS011;54839;51.364;7.246;2023-10-09T09:53:56;15.40;;;10.63;;
68050;SDS011;54839;51.364;7.246;2023-10-09T09:56:25;13.33;;;9.23;;
68050;SDS011;54839;51.364;7.246;2023-10-09T09:58:53;12.87;;;9.83;;
68050;SDS011;54839;51.364;7.246;2023-10-09T10:01:23;13.23;;;10.47;;
68050;SDS011;54839;51.364;7.246;2023-10-09T10:04:15;16.73;;;10.37;;
68050;SDS011;54839;51.364;7.246;2023-10-09T10:06:45;14.33;;;8.83;;
68050;SDS011;54839;51.364;7.246;2023-10-09T10:12:09;16.23;;;10.63;;
68050;SDS011;54839;51.364;7.246;2023-10-09T10:20:24;12.10;;;10.30;;
68050;SDS011;54839;51.364;7.246;2023-10-09T10:22:50;13.67;;;9.60;;
68050;SDS011;54839;51.364;7.246;2023-10-09T10:25:37;12.20;;;9.37;;
68050;SDS011;54839;51.364;7.246;2023-10-09T10:31:01;17.90;;;10.40;;
68050;SDS011;54839;51.364;7.246;2023-10-09T10:36:19;13.80;;;9.77;;
68050;SDS011;54839;51.364;7.246;2023-10-09T10:39:04;13.33;;;10.07;;
68050;SDS011;54839;51.364;7.246;2023-10-09T10:41:54;17.10;;;11.70;;
68050;SDS011;54839;51.364;7.246;2023-10-09T10:44:29;13.00;;;9.47;;
68050;SDS011;54839;51.364;7.246;2023-10-09T10:46:58;14.10;;;10.00;;
68050;SDS011;54839;51.364;7.246;2023-10-09T10:49:24;16.90;;;10.70;;
68050;SDS011;54839;51.364;7.246;2023-10-09T10:52:01;15.10;;;9.80;;
68050;SDS011;54839;51.364;7.246;2023-10-09T10:54:40;17.20;;;10.53;;
68050;SDS011;54839;51.364;7.246;2023-10-09T10:57:18;13.83;;;10.10;;
68050;SDS011;54839;51.364;7.246;2023-10-09T10:59:45;15.50;;;10.10;;
68050;SDS011;54839;51.364;7.246;2023-10-09T11:02:11;24.83;;;11.60;;
68050;SDS011;54839;51.364;7.246;2023-10-09T11:04:37;13.80;;;11.07;;
68050;SDS011;54839;51.364;7.246;2023-10-09T11:07:03;14.90;;;10.30;;
68050;SDS011;54839;51.364;7.246;2023-10-09T11:09:57;12.80;;;9.20;;
68050;SDS011;54839;51.364;7.246;2023-10-09T11:12:23;15.10;;;9.47;;
68050;SDS011;54839;51.364;7.246;2023-10-09T11:14:50;11.77;;;9.67;;
68050;SDS011;54839;51.364;7.246;2023-10-09T11:17:35;11.60;;;9.40;;
68050;SDS011;54839;51.364;7.246;2023-10-09T11:20:04;11.57;;;8.30;;
68050;SDS011;54839;51.364;7.246;2023-10-09T11:22:50;14.03;;;10.37;;
68050;SDS011;54839;51.364;7.246;2023-10-09T11:25:35;10.27;;;9.13;;
68050;SDS011;54839;51.364;7.246;2023-10-09T11:28:21;12.63;;;8.80;;
68050;SDS011;54839;51.364;7.246;2023-10-09T11:31:14;13.50;;;9.57;;
68050;SDS011;54839;51.364;7.246;2023-10-09T11:33:49;15.83;;;9.17;;
68050;SDS011;54839;51.364;7.246;2023-10-09T11:36:19;12.13;;;9.97;;
68050;SDS011;54839;51.364;7.246;2023-10-09T11:38:57;12.30;;;9.37;;
68050;SDS011;54839;51.364;7.246;2023-10-09T11:41:42;17.00;;;9.57;;
68050;SDS011;54839;51.364;7.246;2023-10-09T11:44:09;13.60;;;8.60;;
68050;SDS011;54839;51.364;7.246;2023-10-09T11:47:18;13.40;;;7.93;;
68050;SDS011;54839;51.364;7.246;2023-10-09T11:49:52;12.50;;;9.20;;
68050;SDS011;54839;51.364;7.246;2023-10-09T11:52:23;16.80;;;10.93;;
68050;SDS011;54839;51.364;7.246;2023-10-09T11:55:10;11.43;;;9.43;;
68050;SDS011;54839;51.364;7.246;2023-10-09T11:57:40;12.80;;;9.80;;
68050;SDS011;54839;51.364;7.246;2023-10-09T12:00:06;12.47;;;9.77;;
68050;SDS011;54839;51.364;7.246;2023-10-09T12:03:01;15.00;;;9.27;;
68050;SDS011;54839;51.364;7.246;2023-10-09T12:05:31;13.33;;;9.30;;
68050;SDS011;54839;51.364;7.246;2023-10-09T12:07:57;9.57;;;8.57;;
68050;SDS011;54839;51.364;7.246;2023-10-09T12:10:24;19.23;;;9.20;;
68050;SDS011;54839;51.364;7.246;2023-10-09T12:12:54;21.40;;;11.27;;
68050;SDS011;54839;51.364;7.246;2023-10-09T12:15:23;13.13;;;9.10;;
68050;SDS011;54839;51.364;7.246;2023-10-09T12:17:49;15.80;;;10.17;;
68050;SDS011;54839;51.364;7.246;2023-10-09T12:20:18;15.10;;;11.17;;
68050;SDS011;54839;51.364;7.246;2023-10-09T12:23:00;18.83;;;10.20;;
68050;SDS011;54839;51.364;7.246;2023-10-09T12:25:31;15.40;;;10.53;;
68050;SDS011;54839;51.364;7.246;2023-10-09T12:27:59;19.97;;;11.90;;
68050;SDS011;54839;51.364;7.246;2023-10-09T12:30:27;15.93;;;11.33;;
68050;SDS011;54839;51.364;7.246;2023-10-09T12:32:54;19.57;;;10.90;;
68050;SDS011;54839;51.364;7.246;2023-10-09T12:35:24;17.80;;;11.17;;
68050;SDS011;54839;51.364;7.246;2023-10-09T12:37:50;17.20;;;10.50;;
68050;SDS011;54839;51.364;7.246;2023-10-09T12:40:16;16.43;;;10.27;;
68050;SDS011;54839;51.364;7.246;2023-10-09T12:42:49;11.67;;;9.97;;
68050;SDS011;54839;51.364;7.246;2023-10-09T12:45:21;13.13;;;9.23;;
68050;SDS011;54839;51.364;7.246;2023-10-09T12:47:58;15.57;;;10.83;;
68050;SDS011;54839;51.364;7.246;2023-10-09T12:50:27;13.37;;;11.30;;
68050;SDS011;54839;51.364;7.246;2023-10-09T12:52:59;22.07;;;10.63;;
68050;SDS011;54839;51.364;7.246;2023-10-09T12:55:34;16.47;;;10.20;;
68050;SDS011;54839;51.364;7.246;2023-10-09T12:58:10;18.23;;;11.10;;
68050;SDS011;54839;51.364;7.246;2023-10-09T13:00:40;14.00;;;10.50;;
68050;SDS011;54839;51.364;7.246;2023-10-09T13:03:13;18.17;;;12.10;;
68050;SDS011;54839;51.364;7.246;2023-10-09T13:05:52;16.80;;;11.27;;
68050;SDS011;54839;51.364;7.246;2023-10-09T13:08:21;16.40;;;11.10;;
68050;SDS011;54839;51.364;7.246;2023-10-09T13:11:07;16.60;;;11.23;;
68050;SDS011;54839;51.364;7.246;2023-10-09T13:13:39;13.50;;;10.67;;
68050;SDS011;54839;51.364;7.246;2023-10-09T13:16:07;16.83;;;10.60;;
68050;SDS011;54839;51.364;7.246;2023-10-09T13:18:39;16.03;;;11.13;;
68050;SDS011;54839;51.364;7.246;2023-10-09T13:21:07;16.10;;;10.57;;
68050;SDS011;54839;51.364;7.246;2023-10-09T13:23:33;16.40;;;11.83;;
68050;SDS011;54839;51.364;7.246;2023-10-09T13:26:05;19.50;;;10.47;;
68050;SDS011;54839;51.364;7.246;2023-10-09T13:28:43;18.07;;;10.47;;
68050;SDS011;54839;51.364;7.246;2023-10-09T13:31:12;18.03;;;13.60;;
68050;SDS011;54839;51.364;7.246;2023-10-09T13:33:42;28.80;;;11.63;;
68050;SDS011;54839;51.364;7.246;2023-10-09T13:36:12;17.30;;;9.27;;
68050;SDS011;54839;51.364;7.246;2023-10-09T13:38:42;19.60;;;10.97;;
68050;SDS011;54839;51.364;7.246;2023-10-09T13:41:08;13.83;;;9.50;;
68050;SDS011;54839;51.364;7.246;2023-10-09T13:43:38;12.77;;;9.00;;
68050;SDS011;54839;51.364;7.246;2023-10-09T13:46:09;19.00;;;13.30;;
68050;SDS011;54839;51.364;7.246;2023-10-09T13:48:36;14.33;;;12.90;;
68050;SDS011;54839;51.364;7.246;2023-10-09T13:51:06;14.90;;;11.73;;
68050;SDS011;54839;51.364;7.246;2023-10-09T13:53:34;16.20;;;13.97;;
68050;SDS011;54839;51.364;7.246;2023-10-09T13:56:13;17.87;;;13.13;;
68050;SDS011;54839;51.364;7.246;2023-10-09T14:01:19;15.93;;;13.90;;
68050;SDS011;54839;51.364;7.246;2023-10-09T14:03:52;14.80;;;13.20;;
68050;SDS011;54839;51.364;7.246;2023-10-09T14:06:18;15.77;;;12.57;;
68050;SDS011;54839;51.364;7.246;2023-10-09T14:08:55;13.47;;;12.10;;
68050;SDS011;54839;51.364;7.246;2023-10-09T14:11:29;17.83;;;12.90;;
68050;SDS011;54839;51.364;7.246;2023-10-09T14:13:56;15.43;;;13.70;;
68050;SDS011;54839;51.364;7.246;2023-10-09T14:16:21;15.17;;;13.70;;
68050;SDS011;54839;51.364;7.246;2023-10-09T14:18:53;20.10;;;14.47;;
68050;SDS011;54839;51.364;7.246;2023-10-09T14:21:21;14.83;;;13.13;;
68050;SDS011;54839;51.364;7.246;2023-10-09T14:23:51;21.87;;;14.80;;
68050;SDS011;54839;51.364;7.246;2023-10-09T14:26:21;15.37;;;13.87;;
68050;SDS011;54839;51.364;7.246;2023-10-09T14:28:48;17.77;;;14.67;;
68050;SDS011;54839;51.364;7.246;2023-10-09T14:31:14;23.67;;;14.90;;
68050;SDS011;54839;51.364;7.246;2023-10-09T14:33:46;18.10;;;14.67;;
68050;SDS011;54839;51.364;7.246;2023-10-09T14:36:16;18.87;;;13.70;;
68050;SDS011;54839;51.364;7.246;2023-10-09T14:38:43;17.53;;;14.27;;
68050;SDS011;54839;51.364;7.246;2023-10-09T14:41:11;23.43;;;14.20;;
68050;SDS011;54839;51.364;7.246;2023-10-09T14:43:38;19.70;;;14.17;;
68050;SDS011;54839;51.364;7.246;2023-10-09T14:46:04;15.13;;;12.23;;
68050;SDS011;54839;51.364;7.246;2023-10-09T14:48:36;23.07;;;14.20;;
68050;SDS011;54839;51.364;7.246;2023-10-09T14:51:03;15.90;;;12.00;;
68050;SDS011;54839;51.364;7.246;2023-10-09T14:53:32;15.67;;;13.77;;
68050;SDS011;54839;51.364;7.246;2023-10-09T14:55:59;17.43;;;12.00;;
68050;SDS011;54839;51.364;7.246;2023-10-09T14:58:26;15.67;;;14.00;;
68050;SDS011;54839;51.364;7.246;2023-10-09T15:00:54;16.00;;;14.13;;
68050;SDS011;54839;51.364;7.246;2023-10-09T15:03:20;21.13;;;16.13;;
68050;SDS011;54839;51.364;7.246;2023-10-09T15:05:47;18.37;;;16.00;;
68050;SDS011;54839;51.364;7.246;2023-10-09T15:08:12;22.27;;;14.50;;
68050;SDS011;54839;51.364;7.246;2023-10-09T15:10:48;19.80;;;16.07;;
68050;SDS011;54839;51.364;7.246;2023-10-09T15:13:16;17.73;;;14.63;;
68050;SDS011;54839;51.364;7.246;2023-10-09T15:15:43;18.70;;;15.30;;
68050;SDS011;54839;51.364;7.246;2023-10-09T15:18:09;22.53;;;13.30;;
68050;SDS011;54839;51.364;7.246;2023-10-09T15:20:39;19.70;;;14.17;;
68050;SDS011;54839;51.364;7.246;2023-10-09T15:23:05;18.93;;;14.13;;
68050;SDS011;54839;51.364;7.246;2023-10-09T15:25:32;14.53;;;13.00;;
68050;SDS011;54839;51.364;7.246;2023-10-09T15:27:59;17.70;;;13.10;;
68050;SDS011;54839;51.364;7.246;2023-10-09T15:30:25;20.90;;;13.13;;
68050;SDS011;54839;51.364;7.246;2023-10-09T15:32:52;21.23;;;13.10;;